sensor_id;sensor_type;location;lat;lon;timestamp;P1;durP1;ratioP1;P2;durP2;ratioP2
11568;SDS011;5840;46.894;15.542;2023-05-19T00:01:38;9.30;;;8.47;;
11568;SDS011;5840;46.894;15.542;2023-05-19T00:04:08;9.87;;;8.87;;
11568;SDS011;5840;46.894;15.542;2023-05-19T00:06:36;9.93;;;9.03;;
11568;SDS011;5840;46.894;15.542;2023-05-19T00:09:06;9.30;;;8.60;;
11568;SDS011;5840;46.894;15.542;2023-05-19T00:11:34;11.17;;;10.00;;
11568;SDS011;5840;46.894;15.542;2023-05-19T00:14:02;10.50;;;9.40;;
11568;SDS011;5840;46.894;15.542;2023-05-19T00:16:31;10.53;;;9.40;;
11568;SDS011;5840;46.894;15.542;2023-05-19T00:19:00;11.73;;;9.27;;
11568;SDS011;5840;46.894;15.542;2023-05-19T00:21:28;9.97;;;9.03;;
11568;SDS011;5840;46.894;15.542;2023-05-19T00:23:55;10.03;;;9.13;;
11568;SDS011;5840;46.894;15.542;2023-05-19T00:26:22;10.73;;;9.70;;
11568;SDS011;5840;46.894;15.542;2023-05-19T00:28:51;10.40;;;9.40;;
11568;SDS011;5840;46.894;15.542;2023-05-19T00:31:18;9.80;;;8.90;;
11568;SDS011;5840;46.894;15.542;2023-05-19T00:33:45;9.60;;;8.63;;
11568;SDS011;5840;46.894;15.542;2023-05-19T00:36:13;9.40;;;8.57;;
11568;SDS011;5840;46.894;15.542;2023-05-19T00:38:40;9.73;;;8.27;;
11568;SDS011;5840;46.894;15.542;2023-05-19T00:41:07;9.33;;;8.40;;
11568;SDS011;5840;46.894;15.542;2023-05-19T00:43:34;8.40;;;7.60;;
11568;SDS011;5840;46.894;15.542;2023-05-19T00:46:00;11.47;;;8.70;;
11568;SDS011;5840;46.894;15.542;2023-05-19T00:48:27;7.97;;;7.37;;
11568;SDS011;5840;46.894;15.542;2023-05-19T00:50:55;8.37;;;7.70;;
11568;SDS011;5840;46.894;15.542;2023-05-19T00:53:27;9.50;;;8.00;;
11568;SDS011;5840;46.894;15.542;2023-05-19T00:55:55;8.90;;;8.20;;
11568;SDS011;5840;46.894;15.542;2023-05-19T00:58:22;10.00;;;9.00;;
11568;SDS011;5840;46.894;15.542;2023-05-19T01:00:53;8.80;;;8.00;;
11568;SDS011;5840;46.894;15.542;2023-05-19T01:03:26;9.33;;;8.47;;
11568;SDS011;5840;46.894;15.542;2023-05-19T01:05:54;9.53;;;8.63;;
11568;SDS011;5840;46.894;15.542;2023-05-19T01:08:21;11.13;;;10.07;;
11568;SDS011;5840;46.894;15.542;2023-05-19T01:10:50;11.30;;;10.20;;
11568;SDS011;5840;46.894;15.542;2023-05-19T01:13:17;10.80;;;9.70;;
11568;SDS011;5840;46.894;15.542;2023-05-19T01:15:49;10.37;;;9.57;;
11568;SDS011;5840;46.894;15.542;2023-05-19T01:18:31;10.67;;;9.57;;
11568;SDS011;5840;46.894;15.542;2023-05-19T01:21:08;10.40;;;9.50;;
11568;SDS011;5840;46.894;15.542;2023-05-19T01:23:49;9.17;;;8.27;;
11568;SDS011;5840;46.894;15.542;2023-05-19T01:26:34;9.60;;;8.80;;
11568;SDS011;5840;46.894;15.542;2023-05-19T01:29:16;9.87;;;8.87;;
11568;SDS011;5840;46.894;15.542;2023-05-19T01:31:56;9.60;;;8.70;;
11568;SDS011;5840;46.894;15.542;2023-05-19T01:34:25;10.43;;;9.43;;
11568;SDS011;5840;46.894;15.542;2023-05-19T01:36:52;8.50;;;7.70;;
11568;SDS011;5840;46.894;15.542;2023-05-19T01:39:20;9.27;;;8.30;;
11568;SDS011;5840;46.894;15.542;2023-05-19T01:41:48;9.37;;;8.57;;
11568;SDS011;5840;46.894;15.542;2023-05-19T01:44:17;9.70;;;8.70;;
11568;SDS011;5840;46.894;15.542;2023-05-19T01:46:46;9.33;;;8.33;;
11568;SDS011;5840;46.894;15.542;2023-05-19T01:49:15;9.33;;;8.53;;
11568;SDS011;5840;46.894;15.542;2023-05-19T01:51:42;9.97;;;9.13;;
11568;SDS011;5840;46.894;15.542;2023-05-19T01:54:09;11.97;;;10.40;;
11568;SDS011;5840;46.894;15.542;2023-05-19T01:56:37;11.03;;;10.10;;
11568;SDS011;5840;46.894;15.542;2023-05-19T01:59:14;9.87;;;8.97;;
11568;SDS011;5840;46.894;15.542;2023-05-19T02:01:50;10.13;;;9.23;;
11568;SDS011;5840;46.894;15.542;2023-05-19T02:04:22;10.80;;;9.80;;
11568;SDS011;5840;46.894;15.542;2023-05-19T02:06:57;9.43;;;8.63;;
11568;SDS011;5840;46.894;15.542;2023-05-19T02:09:33;9.60;;;8.60;;
11568;SDS011;5840;46.894;15.542;2023-05-19T02:12:08;9.47;;;8.57;;
11568;SDS011;5840;46.894;15.542;2023-05-19T02:14:40;9.30;;;8.50;;
11568;SDS011;5840;46.894;15.542;2023-05-19T02:17:14;9.10;;;8.20;;
11568;SDS011;5840;46.894;15.542;2023-05-19T02:19:44;9.50;;;8.60;;
11568;SDS011;5840;46.894;15.542;2023-05-19T02:22:11;10.30;;;9.23;;
11568;SDS011;5840;46.894;15.542;2023-05-19T02:24:38;10.53;;;9.63;;
11568;SDS011;5840;46.894;15.542;2023-05-19T02:27:05;9.90;;;9.10;;
11568;SDS011;5840;46.894;15.542;2023-05-19T02:29:32;10.03;;;9.10;;
11568;SDS011;5840;46.894;15.542;2023-05-19T02:31:59;9.33;;;8.63;;
11568;SDS011;5840;46.894;15.542;2023-05-19T02:34:26;10.07;;;9.07;;
11568;SDS011;5840;46.894;15.542;2023-05-19T02:36:55;10.17;;;9.07;;
11568;SDS011;5840;46.894;15.542;2023-05-19T02:39:21;11.13;;;8.70;;
11568;SDS011;5840;46.894;15.542;2023-05-19T02:41:48;9.80;;;8.83;;
11568;SDS011;5840;46.894;15.542;2023-05-19T02:44:15;9.50;;;8.60;;
11568;SDS011;5840;46.894;15.542;2023-05-19T02:46:42;10.73;;;9.73;;
11568;SDS011;5840;46.894;15.542;2023-05-19T02:49:09;10.03;;;9.23;;
11568;SDS011;5840;46.894;15.542;2023-05-19T02:51:36;10.57;;;9.57;;
11568;SDS011;5840;46.894;15.542;2023-05-19T02:54:04;11.43;;;10.33;;
11568;SDS011;5840;46.894;15.542;2023-05-19T02:56:31;10.77;;;9.80;;
11568;SDS011;5840;46.894;15.542;2023-05-19T02:58:58;11.53;;;10.43;;
11568;SDS011;5840;46.894;15.542;2023-05-19T03:01:25;11.03;;;10.03;;
11568;SDS011;5840;46.894;15.542;2023-05-19T03:03:52;11.87;;;10.73;;
11568;SDS011;5840;46.894;15.542;2023-05-19T03:06:19;11.17;;;10.13;;
11568;SDS011;5840;46.894;15.542;2023-05-19T03:08:47;11.13;;;10.07;;
11568;SDS011;5840;46.894;15.542;2023-05-19T03:11:15;12.87;;;10.77;;
11568;SDS011;5840;46.894;15.542;2023-05-19T03:13:42;11.70;;;10.70;;
11568;SDS011;5840;46.894;15.542;2023-05-19T03:16:09;11.23;;;10.13;;
11568;SDS011;5840;46.894;15.542;2023-05-19T03:18:36;11.37;;;10.30;;
11568;SDS011;5840;46.894;15.542;2023-05-19T03:21:03;11.67;;;10.50;;
11568;SDS011;5840;46.894;15.542;2023-05-19T03:23:30;11.83;;;10.83;;
11568;SDS011;5840;46.894;15.542;2023-05-19T03:25:57;11.00;;;10.03;;
11568;SDS011;5840;46.894;15.542;2023-05-19T03:28:26;10.33;;;9.40;;
11568;SDS011;5840;46.894;15.542;2023-05-19T03:30:53;11.40;;;10.47;;
11568;SDS011;5840;46.894;15.542;2023-05-19T03:33:20;10.73;;;9.73;;
11568;SDS011;5840;46.894;15.542;2023-05-19T03:35:47;11.70;;;10.50;;
11568;SDS011;5840;46.894;15.542;2023-05-19T03:38:14;9.83;;;9.03;;
11568;SDS011;5840;46.894;15.542;2023-05-19T03:40:41;10.40;;;9.33;;
11568;SDS011;5840;46.894;15.542;2023-05-19T03:43:09;12.40;;;9.93;;
11568;SDS011;5840;46.894;15.542;2023-05-19T03:45:37;9.77;;;8.97;;
11568;SDS011;5840;46.894;15.542;2023-05-19T03:48:04;10.70;;;9.43;;
11568;SDS011;5840;46.894;15.542;2023-05-19T03:50:31;12.67;;;10.60;;
11568;SDS011;5840;46.894;15.542;2023-05-19T03:52:58;11.53;;;10.50;;
11568;SDS011;5840;46.894;15.542;2023-05-19T03:55:25;13.23;;;11.87;;
11568;SDS011;5840;46.894;15.542;2023-05-19T03:57:53;11.53;;;10.37;;
11568;SDS011;5840;46.894;15.542;2023-05-19T04:00:21;11.40;;;10.33;;
11568;SDS011;5840;46.894;15.542;2023-05-19T04:02:49;10.33;;;9.53;;
11568;SDS011;5840;46.894;15.542;2023-05-19T04:05:16;11.07;;;10.07;;
11568;SDS011;5840;46.894;15.542;2023-05-19T04:07:43;10.43;;;9.53;;
11568;SDS011;5840;46.894;15.542;2023-05-19T04:10:11;11.33;;;10.10;;
11568;SDS011;5840;46.894;15.542;2023-05-19T04:12:38;11.60;;;10.43;;
11568;SDS011;5840;46.894;15.542;2023-05-19T04:15:05;12.00;;;10.40;;
11568;SDS011;5840;46.894;15.542;2023-05-19T04:17:35;11.00;;;10.00;;
11568;SDS011;5840;46.894;15.542;2023-05-19T04:20:04;12.30;;;11.00;;
11568;SDS011;5840;46.894;15.542;2023-05-19T04:22:31;12.20;;;10.67;;
11568;SDS011;5840;46.894;15.542;2023-05-19T04:24:58;12.90;;;11.60;;
11568;SDS011;5840;46.894;15.542;2023-05-19T04:27:25;11.93;;;10.73;;
11568;SDS011;5840;46.894;15.542;2023-05-19T04:29:54;12.47;;;11.17;;
11568;SDS011;5840;46.894;15.542;2023-05-19T04:32:22;12.00;;;10.90;;
11568;SDS011;5840;46.894;15.542;2023-05-19T04:34:49;12.43;;;11.23;;
11568;SDS011;5840;46.894;15.542;2023-05-19T04:37:17;11.60;;;10.50;;
11568;SDS011;5840;46.894;15.542;2023-05-19T04:39:45;12.53;;;11.43;;
11568;SDS011;5840;46.894;15.542;2023-05-19T04:42:12;12.73;;;11.43;;
11568;SDS011;5840;46.894;15.542;2023-05-19T04:44:43;12.33;;;10.87;;
11568;SDS011;5840;46.894;15.542;2023-05-19T04:47:10;11.73;;;10.73;;
11568;SDS011;5840;46.894;15.542;2023-05-19T04:49:37;12.43;;;11.23;;
11568;SDS011;5840;46.894;15.542;2023-05-19T04:52:05;12.77;;;11.57;;
11568;SDS011;5840;46.894;15.542;2023-05-19T04:54:36;13.33;;;11.40;;
11568;SDS011;5840;46.894;15.542;2023-05-19T04:57:03;12.07;;;10.97;;
11568;SDS011;5840;46.894;15.542;2023-05-19T04:59:31;12.87;;;11.57;;
11568;SDS011;5840;46.894;15.542;2023-05-19T05:01:57;12.00;;;10.90;;
11568;SDS011;5840;46.894;15.542;2023-05-19T05:04:24;12.67;;;11.43;;
11568;SDS011;5840;46.894;15.542;2023-05-19T05:06:52;13.23;;;11.73;;
11568;SDS011;5840;46.894;15.542;2023-05-19T05:09:19;12.47;;;11.27;;
11568;SDS011;5840;46.894;15.542;2023-05-19T05:11:47;12.60;;;11.30;;
11568;SDS011;5840;46.894;15.542;2023-05-19T05:14:15;12.20;;;11.20;;
11568;SDS011;5840;46.894;15.542;2023-05-19T05:16:43;11.90;;;10.90;;
11568;SDS011;5840;46.894;15.542;2023-05-19T05:19:10;14.80;;;12.23;;
11568;SDS011;5840;46.894;15.542;2023-05-19T05:21:38;12.17;;;10.80;;
11568;SDS011;5840;46.894;15.542;2023-05-19T05:24:06;11.70;;;10.60;;
11568;SDS011;5840;46.894;15.542;2023-05-19T05:26:34;13.53;;;10.97;;
11568;SDS011;5840;46.894;15.542;2023-05-19T05:29:02;11.70;;;10.50;;
11568;SDS011;5840;46.894;15.542;2023-05-19T05:31:30;11.83;;;10.67;;
11568;SDS011;5840;46.894;15.542;2023-05-19T05:33:57;11.50;;;10.27;;
11568;SDS011;5840;46.894;15.542;2023-05-19T05:36:24;11.17;;;10.27;;
11568;SDS011;5840;46.894;15.542;2023-05-19T05:38:51;11.27;;;10.23;;
11568;SDS011;5840;46.894;15.542;2023-05-19T05:41:18;14.10;;;10.23;;
11568;SDS011;5840;46.894;15.542;2023-05-19T05:43:46;12.00;;;10.83;;
11568;SDS011;5840;46.894;15.542;2023-05-19T05:46:14;12.03;;;10.50;;
11568;SDS011;5840;46.894;15.542;2023-05-19T05:48:41;11.43;;;10.40;;
11568;SDS011;5840;46.894;15.542;2023-05-19T05:51:09;11.43;;;10.13;;
11568;SDS011;5840;46.894;15.542;2023-05-19T05:53:39;11.07;;;9.63;;
11568;SDS011;5840;46.894;15.542;2023-05-19T05:56:08;11.00;;;9.93;;
11568;SDS011;5840;46.894;15.542;2023-05-19T05:58:36;11.30;;;10.10;;
11568;SDS011;5840;46.894;15.542;2023-05-19T06:01:04;12.57;;;9.57;;
11568;SDS011;5840;46.894;15.542;2023-05-19T06:03:37;10.20;;;9.30;;
11568;SDS011;5840;46.894;15.542;2023-05-19T06:06:06;10.97;;;9.60;;
11568;SDS011;5840;46.894;15.542;2023-05-19T06:08:33;10.57;;;9.67;;
11568;SDS011;5840;46.894;15.542;2023-05-19T06:11:00;11.30;;;9.90;;
11568;SDS011;5840;46.894;15.542;2023-05-19T06:13:32;11.87;;;9.40;;
11568;SDS011;5840;46.894;15.542;2023-05-19T06:15:59;10.03;;;9.03;;
11568;SDS011;5840;46.894;15.542;2023-05-19T06:18:26;10.53;;;8.90;;
11568;SDS011;5840;46.894;15.542;2023-05-19T06:20:54;9.17;;;8.37;;
11568;SDS011;5840;46.894;15.542;2023-05-19T06:23:21;9.87;;;8.87;;
11568;SDS011;5840;46.894;15.542;2023-05-19T06:25:49;10.40;;;9.50;;
11568;SDS011;5840;46.894;15.542;2023-05-19T06:28:16;10.03;;;9.13;;
11568;SDS011;5840;46.894;15.542;2023-05-19T06:30:42;10.10;;;9.10;;
11568;SDS011;5840;46.894;15.542;2023-05-19T06:33:09;9.87;;;8.83;;
11568;SDS011;5840;46.894;15.542;2023-05-19T06:35:36;11.80;;;9.03;;
11568;SDS011;5840;46.894;15.542;2023-05-19T06:38:05;9.13;;;8.17;;
11568;SDS011;5840;46.894;15.542;2023-05-19T06:40:32;9.17;;;8.33;;
11568;SDS011;5840;46.894;15.542;2023-05-19T06:42:58;10.10;;;8.50;;
11568;SDS011;5840;46.894;15.542;2023-05-19T06:45:25;10.33;;;9.33;;
11568;SDS011;5840;46.894;15.542;2023-05-19T06:47:52;10.73;;;8.70;;
11568;SDS011;5840;46.894;15.542;2023-05-19T06:50:22;10.00;;;9.07;;
11568;SDS011;5840;46.894;15.542;2023-05-19T06:52:49;10.83;;;8.97;;
11568;SDS011;5840;46.894;15.542;2023-05-19T06:55:17;10.27;;;9.17;;
11568;SDS011;5840;46.894;15.542;2023-05-19T06:57:44;10.90;;;8.27;;
11568;SDS011;5840;46.894;15.542;2023-05-19T07:00:12;10.27;;;8.83;;
11568;SDS011;5840;46.894;15.542;2023-05-19T07:02:40;10.13;;;9.10;;
11568;SDS011;5840;46.894;15.542;2023-05-19T07:05:08;10.40;;;9.20;;
11568;SDS011;5840;46.894;15.542;2023-05-19T07:07:35;9.77;;;8.87;;
11568;SDS011;5840;46.894;15.542;2023-05-19T07:10:01;11.50;;;9.73;;
11568;SDS011;5840;46.894;15.542;2023-05-19T07:12:30;9.73;;;8.90;;
11568;SDS011;5840;46.894;15.542;2023-05-19T07:14:57;9.90;;;9.00;;
11568;SDS011;5840;46.894;15.542;2023-05-19T07:17:24;10.07;;;9.07;;
11568;SDS011;5840;46.894;15.542;2023-05-19T07:19:50;10.37;;;9.27;;
11568;SDS011;5840;46.894;15.542;2023-05-19T07:22:17;11.90;;;9.43;;
11568;SDS011;5840;46.894;15.542;2023-05-19T07:24:45;9.83;;;8.83;;
11568;SDS011;5840;46.894;15.542;2023-05-19T07:27:12;11.80;;;8.93;;
11568;SDS011;5840;46.894;15.542;2023-05-19T07:29:40;10.77;;;8.87;;
11568;SDS011;5840;46.894;15.542;2023-05-19T07:32:07;9.50;;;8.40;;
11568;SDS011;5840;46.894;15.542;2023-05-19T07:34:34;9.70;;;8.70;;
11568;SDS011;5840;46.894;15.542;2023-05-19T07:37:01;12.43;;;8.47;;
11568;SDS011;5840;46.894;15.542;2023-05-19T07:39:28;12.43;;;9.60;;
11568;SDS011;5840;46.894;15.542;2023-05-19T07:41:56;8.80;;;8.03;;
11568;SDS011;5840;46.894;15.542;2023-05-19T07:44:23;10.50;;;9.07;;
11568;SDS011;5840;46.894;15.542;2023-05-19T07:46:52;11.43;;;8.70;;
11568;SDS011;5840;46.894;15.542;2023-05-19T07:49:19;13.43;;;9.70;;
11568;SDS011;5840;46.894;15.542;2023-05-19T07:51:46;10.60;;;8.33;;
11568;SDS011;5840;46.894;15.542;2023-05-19T07:54:13;9.80;;;8.77;;
11568;SDS011;5840;46.894;15.542;2023-05-19T07:56:40;12.53;;;9.17;;
11568;SDS011;5840;46.894;15.542;2023-05-19T07:59:07;9.80;;;8.80;;
11568;SDS011;5840;46.894;15.542;2023-05-19T08:01:34;10.57;;;9.03;;
11568;SDS011;5840;46.894;15.542;2023-05-19T08:04:02;9.47;;;8.47;;
11568;SDS011;5840;46.894;15.542;2023-05-19T08:06:29;9.63;;;8.60;;
11568;SDS011;5840;46.894;15.542;2023-05-19T08:08:56;9.40;;;8.53;;
11568;SDS011;5840;46.894;15.542;2023-05-19T08:11:23;9.77;;;8.87;;
11568;SDS011;5840;46.894;15.542;2023-05-19T08:13:50;10.80;;;8.73;;
11568;SDS011;5840;46.894;15.542;2023-05-19T08:16:17;11.37;;;9.20;;
11568;SDS011;5840;46.894;15.542;2023-05-19T08:18:44;10.67;;;8.63;;
11568;SDS011;5840;46.894;15.542;2023-05-19T08:21:12;10.10;;;9.13;;
11568;SDS011;5840;46.894;15.542;2023-05-19T08:23:39;10.53;;;8.77;;
11568;SDS011;5840;46.894;15.542;2023-05-19T08:26:06;12.30;;;10.23;;
11568;SDS011;5840;46.894;15.542;2023-05-19T08:28:33;10.10;;;9.20;;
11568;SDS011;5840;46.894;15.542;2023-05-19T08:31:00;9.53;;;8.53;;
11568;SDS011;5840;46.894;15.542;2023-05-19T08:33:27;9.90;;;8.80;;
11568;SDS011;5840;46.894;15.542;2023-05-19T08:35:54;9.37;;;8.47;;
11568;SDS011;5840;46.894;15.542;2023-05-19T08:38:23;9.63;;;8.80;;
11568;SDS011;5840;46.894;15.542;2023-05-19T08:40:50;11.50;;;10.40;;
11568;SDS011;5840;46.894;15.542;2023-05-19T08:43:17;11.07;;;9.40;;
11568;SDS011;5840;46.894;15.542;2023-05-19T08:45:44;11.27;;;9.50;;
11568;SDS011;5840;46.894;15.542;2023-05-19T08:48:12;11.87;;;9.77;;
11568;SDS011;5840;46.894;15.542;2023-05-19T08:50:39;10.50;;;9.33;;
11568;SDS011;5840;46.894;15.542;2023-05-19T08:53:12;9.83;;;8.83;;
11568;SDS011;5840;46.894;15.542;2023-05-19T08:55:49;11.00;;;9.43;;
11568;SDS011;5840;46.894;15.542;2023-05-19T08:58:26;9.63;;;8.73;;
11568;SDS011;5840;46.894;15.542;2023-05-19T09:00:53;9.87;;;8.70;;
11568;SDS011;5840;46.894;15.542;2023-05-19T09:03:21;9.57;;;8.67;;
11568;SDS011;5840;46.894;15.542;2023-05-19T09:05:50;10.30;;;9.30;;
11568;SDS011;5840;46.894;15.542;2023-05-19T09:08:17;12.13;;;9.30;;
11568;SDS011;5840;46.894;15.542;2023-05-19T09:10:44;9.43;;;8.53;;
11568;SDS011;5840;46.894;15.542;2023-05-19T09:13:12;9.23;;;8.37;;
11568;SDS011;5840;46.894;15.542;2023-05-19T09:15:39;9.07;;;8.20;;
11568;SDS011;5840;46.894;15.542;2023-05-19T09:18:10;9.90;;;8.87;;
11568;SDS011;5840;46.894;15.542;2023-05-19T09:20:38;12.07;;;8.80;;
11568;SDS011;5840;46.894;15.542;2023-05-19T09:23:05;9.53;;;8.53;;
11568;SDS011;5840;46.894;15.542;2023-05-19T09:25:33;8.67;;;7.87;;
11568;SDS011;5840;46.894;15.542;2023-05-19T09:28:00;9.10;;;8.20;;
11568;SDS011;5840;46.894;15.542;2023-05-19T09:30:28;9.50;;;8.20;;
11568;SDS011;5840;46.894;15.542;2023-05-19T09:32:55;13.63;;;8.57;;
11568;SDS011;5840;46.894;15.542;2023-05-19T09:35:22;9.40;;;8.50;;
11568;SDS011;5840;46.894;15.542;2023-05-19T09:37:49;9.37;;;8.57;;
11568;SDS011;5840;46.894;15.542;2023-05-19T09:40:19;8.77;;;7.93;;
11568;SDS011;5840;46.894;15.542;2023-05-19T09:42:46;10.33;;;8.70;;
11568;SDS011;5840;46.894;15.542;2023-05-19T09:45:13;8.50;;;7.70;;
11568;SDS011;5840;46.894;15.542;2023-05-19T09:47:41;9.80;;;8.73;;
11568;SDS011;5840;46.894;15.542;2023-05-19T09:50:09;9.30;;;8.40;;
11568;SDS011;5840;46.894;15.542;2023-05-19T09:52:38;9.50;;;8.13;;
11568;SDS011;5840;46.894;15.542;2023-05-19T09:55:08;8.03;;;7.33;;
11568;SDS011;5840;46.894;15.542;2023-05-19T09:57:37;8.77;;;7.93;;
11568;SDS011;5840;46.894;15.542;2023-05-19T10:00:05;8.63;;;7.73;;
11568;SDS011;5840;46.894;15.542;2023-05-19T10:02:39;10.33;;;8.10;;
11568;SDS011;5840;46.894;15.542;2023-05-19T10:05:09;9.10;;;8.20;;
11568;SDS011;5840;46.894;15.542;2023-05-19T10:07:40;9.50;;;8.60;;
11568;SDS011;5840;46.894;15.542;2023-05-19T10:10:09;8.50;;;7.77;;
11568;SDS011;5840;46.894;15.542;2023-05-19T10:12:38;9.10;;;7.83;;
11568;SDS011;5840;46.894;15.542;2023-05-19T10:15:07;10.27;;;7.53;;
11568;SDS011;5840;46.894;15.542;2023-05-19T10:17:36;8.97;;;8.13;;
11568;SDS011;5840;46.894;15.542;2023-05-19T10:20:06;8.60;;;7.80;;
11568;SDS011;5840;46.894;15.542;2023-05-19T10:22:36;8.03;;;7.13;;
11568;SDS011;5840;46.894;15.542;2023-05-19T10:25:04;7.43;;;6.80;;
11568;SDS011;5840;46.894;15.542;2023-05-19T10:27:33;8.97;;;8.00;;
11568;SDS011;5840;46.894;15.542;2023-05-19T10:30:04;8.07;;;7.47;;
11568;SDS011;5840;46.894;15.542;2023-05-19T10:32:36;8.73;;;7.00;;
11568;SDS011;5840;46.894;15.542;2023-05-19T10:35:13;8.07;;;7.23;;
11568;SDS011;5840;46.894;15.542;2023-05-19T10:37:50;7.93;;;7.27;;
11568;SDS011;5840;46.894;15.542;2023-05-19T10:40:25;7.80;;;7.10;;
11568;SDS011;5840;46.894;15.542;2023-05-19T10:43:01;8.03;;;6.90;;
11568;SDS011;5840;46.894;15.542;2023-05-19T10:45:39;8.60;;;6.77;;
11568;SDS011;5840;46.894;15.542;2023-05-19T10:48:12;7.20;;;6.50;;
11568;SDS011;5840;46.894;15.542;2023-05-19T10:50:41;9.07;;;6.70;;
11568;SDS011;5840;46.894;15.542;2023-05-19T10:53:13;7.30;;;6.20;;
11568;SDS011;5840;46.894;15.542;2023-05-19T10:55:46;8.87;;;6.40;;
11568;SDS011;5840;46.894;15.542;2023-05-19T10:58:35;6.70;;;6.10;;
11568;SDS011;5840;46.894;15.542;2023-05-19T11:01:05;6.97;;;6.23;;
11568;SDS011;5840;46.894;15.542;2023-05-19T11:03:41;7.43;;;5.67;;
11568;SDS011;5840;46.894;15.542;2023-05-19T11:06:19;6.30;;;5.70;;
11568;SDS011;5840;46.894;15.542;2023-05-19T11:08:53;6.20;;;5.60;;
11568;SDS011;5840;46.894;15.542;2023-05-19T11:11:23;6.07;;;5.57;;
11568;SDS011;5840;46.894;15.542;2023-05-19T11:13:50;6.53;;;5.90;;
11568;SDS011;5840;46.894;15.542;2023-05-19T11:16:20;7.07;;;5.80;;
11568;SDS011;5840;46.894;15.542;2023-05-19T11:18:52;6.57;;;5.87;;
11568;SDS011;5840;46.894;15.542;2023-05-19T11:21:21;6.53;;;5.80;;
11568;SDS011;5840;46.894;15.542;2023-05-19T11:23:49;4.70;;;4.10;;
11568;SDS011;5840;46.894;15.542;2023-05-19T11:29:05;6.73;;;5.10;;
11568;SDS011;5840;46.894;15.542;2023-05-19T11:31:32;5.77;;;4.50;;
11568;SDS011;5840;46.894;15.542;2023-05-19T11:34:01;5.17;;;4.67;;
11568;SDS011;5840;46.894;15.542;2023-05-19T11:36:32;5.57;;;5.07;;
11568;SDS011;5840;46.894;15.542;2023-05-19T11:39:01;6.40;;;4.77;;
11568;SDS011;5840;46.894;15.542;2023-05-19T11:41:30;5.77;;;5.27;;
11568;SDS011;5840;46.894;15.542;2023-05-19T11:43:56;5.57;;;5.10;;
11568;SDS011;5840;46.894;15.542;2023-05-19T11:46:24;6.80;;;5.03;;
11568;SDS011;5840;46.894;15.542;2023-05-19T11:48:52;5.30;;;4.90;;
11568;SDS011;5840;46.894;15.542;2023-05-19T11:51:19;6.03;;;5.07;;
11568;SDS011;5840;46.894;15.542;2023-05-19T11:53:49;5.57;;;5.17;;
11568;SDS011;5840;46.894;15.542;2023-05-19T11:56:18;5.63;;;5.10;;
11568;SDS011;5840;46.894;15.542;2023-05-19T11:58:46;5.40;;;4.90;;
11568;SDS011;5840;46.894;15.542;2023-05-19T12:01:13;6.27;;;5.40;;
11568;SDS011;5840;46.894;15.542;2023-05-19T12:03:40;5.97;;;5.47;;
11568;SDS011;5840;46.894;15.542;2023-05-19T12:06:07;5.50;;;5.00;;
11568;SDS011;5840;46.894;15.542;2023-05-19T12:08:34;6.43;;;5.47;;
11568;SDS011;5840;46.894;15.542;2023-05-19T12:11:03;6.20;;;5.60;;
11568;SDS011;5840;46.894;15.542;2023-05-19T12:13:31;5.60;;;5.10;;
11568;SDS011;5840;46.894;15.542;2023-05-19T12:15:59;6.63;;;5.47;;
11568;SDS011;5840;46.894;15.542;2023-05-19T12:18:27;6.10;;;5.70;;
11568;SDS011;5840;46.894;15.542;2023-05-19T12:20:55;5.83;;;5.37;;
11568;SDS011;5840;46.894;15.542;2023-05-19T12:23:22;5.80;;;5.30;;
11568;SDS011;5840;46.894;15.542;2023-05-19T12:25:49;5.73;;;5.13;;
11568;SDS011;5840;46.894;15.542;2023-05-19T12:28:18;5.13;;;4.67;;
11568;SDS011;5840;46.894;15.542;2023-05-19T12:30:46;5.83;;;5.33;;
11568;SDS011;5840;46.894;15.542;2023-05-19T12:33:16;5.73;;;5.17;;
11568;SDS011;5840;46.894;15.542;2023-05-19T12:35:43;5.43;;;5.03;;
11568;SDS011;5840;46.894;15.542;2023-05-19T12:38:12;6.47;;;4.97;;
11568;SDS011;5840;46.894;15.542;2023-05-19T12:40:40;5.30;;;4.87;;
11568;SDS011;5840;46.894;15.542;2023-05-19T12:43:07;5.43;;;4.73;;
11568;SDS011;5840;46.894;15.542;2023-05-19T12:45:46;6.47;;;4.73;;
11568;SDS011;5840;46.894;15.542;2023-05-19T12:48:13;5.10;;;4.70;;
11568;SDS011;5840;46.894;15.542;2023-05-19T12:50:41;4.77;;;4.40;;
11568;SDS011;5840;46.894;15.542;2023-05-19T12:53:08;4.50;;;4.20;;
11568;SDS011;5840;46.894;15.542;2023-05-19T12:55:37;6.50;;;4.63;;
11568;SDS011;5840;46.894;15.542;2023-05-19T12:58:08;5.43;;;5.03;;
11568;SDS011;5840;46.894;15.542;2023-05-19T13:00:40;5.13;;;4.73;;
11568;SDS011;5840;46.894;15.542;2023-05-19T13:03:13;4.60;;;4.30;;
11568;SDS011;5840;46.894;15.542;2023-05-19T13:05:42;5.10;;;4.20;;
11568;SDS011;5840;46.894;15.542;2023-05-19T13:08:11;4.80;;;4.40;;
11568;SDS011;5840;46.894;15.542;2023-05-19T13:10:40;5.13;;;4.30;;
11568;SDS011;5840;46.894;15.542;2023-05-19T13:13:08;4.73;;;4.33;;
11568;SDS011;5840;46.894;15.542;2023-05-19T13:15:36;4.73;;;4.23;;
11568;SDS011;5840;46.894;15.542;2023-05-19T13:18:06;4.40;;;4.10;;
11568;SDS011;5840;46.894;15.542;2023-05-19T13:20:34;6.10;;;4.43;;
11568;SDS011;5840;46.894;15.542;2023-05-19T13:23:02;5.00;;;4.30;;
11568;SDS011;5840;46.894;15.542;2023-05-19T13:25:30;5.03;;;4.63;;
11568;SDS011;5840;46.894;15.542;2023-05-19T13:27:57;5.00;;;4.50;;
11568;SDS011;5840;46.894;15.542;2023-05-19T13:30:25;6.07;;;4.43;;
11568;SDS011;5840;46.894;15.542;2023-05-19T13:32:53;4.80;;;4.40;;
11568;SDS011;5840;46.894;15.542;2023-05-19T13:35:21;4.67;;;4.37;;
11568;SDS011;5840;46.894;15.542;2023-05-19T13:37:48;4.20;;;3.90;;
11568;SDS011;5840;46.894;15.542;2023-05-19T13:40:16;4.57;;;4.00;;
11568;SDS011;5840;46.894;15.542;2023-05-19T13:42:43;5.37;;;4.33;;
11568;SDS011;5840;46.894;15.542;2023-05-19T13:45:10;4.77;;;4.37;;
11568;SDS011;5840;46.894;15.542;2023-05-19T13:47:37;4.63;;;4.20;;
11568;SDS011;5840;46.894;15.542;2023-05-19T13:50:05;3.93;;;3.73;;
11568;SDS011;5840;46.894;15.542;2023-05-19T13:52:34;4.07;;;3.87;;
11568;SDS011;5840;46.894;15.542;2023-05-19T13:55:00;4.67;;;4.23;;
11568;SDS011;5840;46.894;15.542;2023-05-19T13:57:27;5.20;;;4.70;;
11568;SDS011;5840;46.894;15.542;2023-05-19T13:59:54;5.90;;;4.20;;
11568;SDS011;5840;46.894;15.542;2023-05-19T14:02:21;5.20;;;4.53;;
11568;SDS011;5840;46.894;15.542;2023-05-19T14:04:48;5.20;;;4.70;;
11568;SDS011;5840;46.894;15.542;2023-05-19T14:07:16;5.00;;;4.60;;
11568;SDS011;5840;46.894;15.542;2023-05-19T14:09:45;4.70;;;4.30;;
11568;SDS011;5840;46.894;15.542;2023-05-19T14:12:11;5.17;;;4.67;;
11568;SDS011;5840;46.894;15.542;2023-05-19T14:14:39;4.33;;;4.03;;
11568;SDS011;5840;46.894;15.542;2023-05-19T14:17:06;4.53;;;4.13;;
11568;SDS011;5840;46.894;15.542;2023-05-19T14:19:33;4.40;;;4.10;;
11568;SDS011;5840;46.894;15.542;2023-05-19T14:22:00;4.70;;;4.33;;
11568;SDS011;5840;46.894;15.542;2023-05-19T14:24:27;4.10;;;3.80;;
11568;SDS011;5840;46.894;15.542;2023-05-19T14:26:55;4.90;;;4.00;;
11568;SDS011;5840;46.894;15.542;2023-05-19T14:29:22;4.20;;;3.80;;
11568;SDS011;5840;46.894;15.542;2023-05-19T14:31:49;4.50;;;4.10;;
11568;SDS011;5840;46.894;15.542;2023-05-19T14:34:16;4.30;;;4.00;;
11568;SDS011;5840;46.894;15.542;2023-05-19T14:36:45;4.37;;;3.97;;
11568;SDS011;5840;46.894;15.542;2023-05-19T14:39:12;4.77;;;4.30;;
11568;SDS011;5840;46.894;15.542;2023-05-19T14:41:39;5.10;;;4.70;;
11568;SDS011;5840;46.894;15.542;2023-05-19T14:44:07;4.13;;;3.90;;
11568;SDS011;5840;46.894;15.542;2023-05-19T14:46:34;4.40;;;4.10;;
11568;SDS011;5840;46.894;15.542;2023-05-19T14:49:01;4.00;;;3.70;;